Newcastle Emlyn, United Kingdom
Current Conditions -  °F | °C
As of 11:50 PM on Sunday 23 Nov 2014 (Local Time) from EGOP Reporting Station
Few Clouds Few Clouds  
Wind Chill: 27°   Ceiling: Unl
Heat Index: 32°   Visibility: 6mi
Dew Point: 30°   Wind: 5mph
Humidity: 93%   Direction: 80°E
Pressure: 30.24"   Gusts: NA
Location:  52.04°N, 4.47°W
Report Text: EGOP 232350Z AUTO 08004KT 9999 // FEW036/// M00/M01 Q1024
Loading
Personal Weather Stations






























Interactive Weather Map New forecast layout! Learn more

10-Day Weather Forecast

Advertisements
Track Severe Weather on mobile